createdAt,value
2022-11-12T00:00:58.923Z,7.3
2022-11-12T00:06:36.951Z,7.1
2022-11-12T00:12:15.048Z,7.1
2022-11-12T00:17:51.858Z,7.2
2022-11-12T00:23:30.278Z,7.1
2022-11-12T00:29:11.324Z,6.8
2022-11-12T00:34:49.188Z,6.8
2022-11-12T00:40:29.679Z,6.8
2022-11-12T00:51:14.088Z,6.8
2022-11-12T00:56:52.314Z,6.8
2022-11-12T01:02:15.024Z,7
2022-11-12T01:07:56.989Z,6.9
2022-11-12T01:13:36.889Z,6.9
2022-11-12T01:18:45.710Z,6.9
2022-11-12T01:24:23.949Z,6.9
2022-11-12T01:30:01.964Z,6.9
2022-11-12T01:41:03.389Z,6.9
2022-11-12T01:46:26.387Z,6.9
2022-11-12T01:52:10.431Z,7.1
2022-11-12T01:57:51.733Z,7.1
2022-11-12T02:03:30.442Z,7.1
2022-11-12T02:09:08.051Z,7.1
2022-11-12T02:14:46.343Z,7.1
2022-11-12T02:20:09.262Z,7.3
2022-11-12T02:25:46.294Z,7.2
2022-11-12T02:31:07.702Z,7.2
2022-11-12T02:36:45.957Z,7.3
2022-11-12T02:42:08.815Z,7.2
2022-11-12T02:47:46.251Z,7.1
2022-11-12T02:53:24.480Z,7.1
2022-11-12T02:58:47.212Z,7.2
2022-11-12T03:03:54.092Z,7.3
2022-11-12T03:09:38.629Z,7.3
2022-11-12T03:15:00.959Z,7.3
2022-11-12T03:26:01.078Z,7.3
2022-11-12T03:31:40.006Z,7.3
2022-11-12T03:37:16.779Z,7.4
2022-11-12T03:42:53.993Z,7.3
2022-11-12T03:48:00.813Z,7.1
2022-11-12T03:53:22.370Z,6.8
2022-11-12T03:58:45.242Z,6.9
2022-11-12T04:03:51.472Z,6.9
2022-11-12T04:08:58.689Z,6.7
2022-11-12T04:14:21.431Z,6.3
2022-11-12T04:19:28.075Z,6.1
2022-11-12T04:24:34.671Z,5.9
2022-11-12T04:29:40.775Z,5.9
2022-11-12T04:35:03.628Z,5.9
2022-11-12T04:40:15.493Z,5.8
2022-11-12T04:45:37.924Z,5.9
2022-11-12T04:51:00.749Z,5.9
2022-11-12T04:56:22.907Z,6.1
2022-11-12T05:01:45.421Z,6.2
2022-11-12T05:07:23.023Z,6.3
2022-11-12T05:13:01.667Z,6.4
2022-11-12T05:18:39.777Z,6.5
2022-11-12T05:25:14.093Z,6.5
2022-11-12T05:30:53.621Z,6.4
2022-11-12T05:36:34.187Z,6.4
2022-11-12T05:42:38.895Z,6.4
2022-11-12T05:48:20.226Z,6.3
2022-11-12T05:54:23.742Z,6.3
2022-11-12T06:00:09.451Z,6.2
2022-11-12T06:05:32.262Z,6.2
2022-11-12T06:10:54.732Z,6.4
2022-11-12T06:16:17.165Z,6.8
2022-11-12T06:21:39.201Z,7.3
2022-11-12T06:27:08.428Z,8
2022-11-12T06:32:31.340Z,8.4
2022-11-12T06:37:59.737Z,8.9
2022-11-12T06:43:21.056Z,9.2
2022-11-12T06:48:28.282Z,9.4
2022-11-12T06:54:07.086Z,9
2022-11-12T06:59:29.239Z,9.4
2022-11-12T07:05:11.137Z,9.4
2022-11-12T07:10:52.827Z,9.3
2022-11-12T07:16:21.253Z,9.6
2022-11-12T07:21:48.896Z,9.3
2022-11-12T07:27:14.880Z,9.4
2022-11-12T07:33:19.098Z,9.6
2022-11-12T07:38:44.486Z,9.8
2022-11-12T07:44:23.218Z,9.8
2022-11-12T07:50:08.784Z,9.6
2022-11-12T07:55:46.917Z,9.4
2022-11-12T08:01:31.307Z,9.3
2022-11-12T08:07:18.541Z,9.3
2022-11-12T08:12:57.595Z,9.3
2022-11-12T08:18:39.944Z,9.5
2022-11-12T08:24:02.808Z,9.6
2022-11-12T08:29:41.999Z,9.7
2022-11-12T08:35:07.731Z,10
2022-11-12T08:40:47.059Z,10
2022-11-12T08:46:26.763Z,9.9
2022-11-12T08:52:06.148Z,9.9
2022-11-12T08:57:44.789Z,10.1
2022-11-12T09:03:23.599Z,10.2
2022-11-12T09:09:02.878Z,10.1
2022-11-12T09:14:04.202Z,10.1
2022-11-12T09:20:15.911Z,10.1
2022-11-12T09:25:54.318Z,10.1
2022-11-12T09:31:33.547Z,9.8
2022-11-12T09:37:13.151Z,9.8
2022-11-12T09:42:52.566Z,9.9
2022-11-12T09:49:02.612Z,9.8
2022-11-12T09:54:41.087Z,9.9
2022-11-12T10:00:18.693Z,10.1
2022-11-12T10:05:57.264Z,10.4
2022-11-12T10:11:41.010Z,10.6
2022-11-12T10:17:25.667Z,10.3
2022-11-12T10:23:04.382Z,10.1
2022-11-12T10:28:42.965Z,10
2022-11-12T10:34:21.097Z,9.7
2022-11-12T10:39:59.198Z,9.6
2022-11-12T10:45:42.041Z,9.8
2022-11-12T10:51:20.620Z,9.6
2022-11-12T10:56:59.255Z,9.5
2022-11-12T11:02:42.977Z,9.6
2022-11-12T11:08:21.369Z,9.5
2022-11-12T11:13:45.209Z,9.8
2022-11-12T11:19:08.224Z,9.8
2022-11-12T11:24:34.748Z,9.8
2022-11-12T11:30:13.466Z,9.7
2022-11-12T11:35:51.618Z,9.6
2022-11-12T11:41:29.745Z,9.6
2022-11-12T11:47:08.439Z,9.4
2022-11-12T11:53:11.324Z,9.4
2022-11-12T11:58:49.689Z,9.4
2022-11-12T12:04:28.155Z,9.4
2022-11-12T12:10:09.198Z,9.4
2022-11-12T12:16:13.735Z,9.6
2022-11-12T12:21:53.238Z,9.7
2022-11-12T12:27:31.420Z,9.8
2022-11-12T12:33:14.082Z,9.8
2022-11-12T12:38:52.648Z,9.8
2022-11-12T12:44:36.439Z,9.8
2022-11-12T12:49:59.070Z,9.8
2022-11-12T12:55:38.646Z,9.9
2022-11-12T13:01:06.310Z,9.9
2022-11-12T13:06:45.099Z,9.7
2022-11-12T13:12:08.768Z,9.6
2022-11-12T13:17:47.216Z,9.4
2022-11-12T13:23:30.630Z,9.3
2022-11-12T13:28:55.958Z,9.3
2022-11-12T13:34:40.321Z,9.2
2022-11-12T13:40:07.550Z,9.2
2022-11-12T13:45:46.749Z,9.1
2022-11-12T13:51:31.069Z,8.9
2022-11-12T13:56:53.701Z,9
2022-11-12T14:02:20.911Z,9
2022-11-12T14:08:03.966Z,9
2022-11-12T14:13:41.746Z,9
2022-11-12T14:19:24.322Z,9
2022-11-12T14:25:09.520Z,9
2022-11-12T14:30:50.228Z,8.9
2022-11-12T14:36:28.639Z,8.9
2022-11-12T14:42:10.346Z,8.9
2022-11-12T14:48:10.636Z,8.9
2022-11-12T14:53:57.580Z,8.9
2022-11-12T14:59:42.710Z,8.9
2022-11-12T15:06:24.349Z,8.8
2022-11-12T15:11:54.392Z,8.8
2022-11-12T15:17:16.815Z,8.8
2022-11-12T15:23:01.238Z,8.7
2022-11-12T15:28:40.080Z,8.6
2022-11-12T15:34:03.048Z,8.6
2022-11-12T15:39:41.470Z,8.5
2022-11-12T15:50:02.565Z,8.4
2022-11-12T15:55:47.691Z,8.4
2022-11-12T16:01:25.468Z,8.3
2022-11-12T16:06:48.180Z,8.4
2022-11-12T16:12:10.942Z,8.4
2022-11-12T16:17:34.365Z,8.4
2022-11-12T16:23:12.381Z,8.4
2022-11-12T16:28:35.917Z,8.3
2022-11-12T16:34:14.893Z,8.4
2022-11-12T16:39:52.977Z,8.3
2022-11-12T16:45:30.973Z,8.3
2022-11-12T16:51:09.258Z,8.3
2022-11-12T16:56:50.459Z,8.3
2022-11-12T17:02:28.844Z,8.3
2022-11-12T17:07:57.589Z,8.3
2022-11-12T17:13:23.814Z,8.3
2022-11-12T17:18:46.402Z,8.2
2022-11-12T17:24:15.354Z,8.2
2022-11-12T17:29:41.664Z,8.2
2022-11-12T17:35:04.351Z,8.2
2022-11-12T17:40:28.166Z,8.2
2022-11-12T17:45:50.315Z,8.2
2022-11-12T17:51:12.655Z,8.2
2022-11-12T17:56:19.963Z,8.3
2022-11-12T18:01:43.737Z,8.3
2022-11-12T18:07:06.944Z,8.3
2022-11-12T18:12:35.041Z,8.3
2022-11-12T18:17:43.593Z,8.3
2022-11-12T18:23:06.552Z,8.3
2022-11-12T18:28:29.258Z,8.3
2022-11-12T18:33:52.096Z,8.3
2022-11-12T18:39:14.733Z,8.3
2022-11-12T18:44:42.318Z,8.3
2022-11-12T18:49:48.852Z,8.3
2022-11-12T18:54:59.269Z,8.2
2022-11-12T19:00:22.355Z,8.3
2022-11-12T19:05:52.317Z,8.3
2022-11-12T19:11:04.612Z,8.3
2022-11-12T19:16:17.331Z,8.3
2022-11-12T19:21:44.187Z,8.3
2022-11-12T19:27:22.172Z,8.3
2022-11-12T19:32:44.850Z,8.2
2022-11-12T19:38:22.036Z,8.2
2022-11-12T19:43:35.766Z,8.2
2022-11-12T19:48:58.618Z,8.1
2022-11-12T19:54:08.888Z,8.2
2022-11-12T19:59:37.793Z,8.2
2022-11-12T20:05:16.483Z,8.2
2022-11-12T20:10:39.392Z,8.2
2022-11-12T20:16:23.740Z,8.2
2022-11-12T20:22:03.155Z,8.2
2022-11-12T20:27:43.083Z,8.2
2022-11-12T20:33:20.879Z,8.2
2022-11-12T20:38:27.688Z,8.2
2022-11-12T20:43:35.275Z,8.2
2022-11-12T20:48:43.887Z,8.2
2022-11-12T20:54:34.880Z,8.2
2022-11-12T21:00:15.998Z,8.2
2022-11-12T21:05:41.235Z,8.3
2022-11-12T21:11:22.351Z,8.3
2022-11-12T21:16:35.953Z,8.3
2022-11-12T21:22:14.681Z,8.3
2022-11-12T21:27:53.491Z,8.3
2022-11-12T21:33:19.419Z,8.3
2022-11-12T21:38:57.999Z,8.4
2022-11-12T21:44:21.043Z,8.4
2022-11-12T21:50:02.647Z,8.4
2022-11-12T21:55:40.549Z,8.4
2022-11-12T22:01:47.656Z,8.4
2022-11-12T22:12:34.038Z,8.4
2022-11-12T22:18:33.554Z,8.3
2022-11-12T22:23:58.431Z,8.4
2022-11-12T22:29:23.610Z,8.4
2022-11-12T22:35:05.943Z,8.4
2022-11-12T22:40:46.767Z,8.4
2022-11-12T22:46:24.518Z,8.4
2022-11-12T22:52:02.521Z,8.4
2022-11-12T22:57:40.453Z,8.4
2022-11-12T23:03:20.738Z,8.4
2022-11-12T23:08:59.721Z,8.5
2022-11-12T23:14:10.740Z,8.6
2022-11-12T23:19:33.288Z,8.6
2022-11-12T23:25:00.643Z,8.6
2022-11-12T23:30:38.746Z,8.6
2022-11-12T23:36:16.582Z,8.6
2022-11-12T23:41:59.523Z,8.6
2022-11-12T23:47:37.217Z,8.6
2022-11-12T23:53:15.618Z,8.6
2022-11-12T23:58:06.577Z,8.4
